Time;durP1;ratioP1;P1;durP2;ratioP2;P2;SDS_P1;SDS_P2;PMS_P1;PMS_P2;Temp;Humidity;BMP_temperature;BMP_pressure;BME280_temperature;BME280_humidity;BME280_pressure;Samples;Min_cycle;Max_cycle;Signal;HPM_P1;HPM_P2
2023/11/22 00:02:17;;;;;;;3.50;2.07;;;7.70;99.90;;;;;;5073724;28;20481;-88
2023/11/22 00:04:44;;;;;;;1.40;1.30;;;7.70;99.90;;;;;;5073839;28;20448;-88
2023/11/22 00:07:11;;;;;;;1.80;1.00;;;7.70;99.90;;;;;;5073437;28;20451;-88
2023/11/22 00:09:39;;;;;;;0.60;0.60;;;7.70;99.90;;;;;;5075012;28;20559;-88
2023/11/22 00:12:06;;;;;;;2.87;1.53;;;7.70;99.90;;;;;;5097722;28;20490;-85
2023/11/22 00:14:34;;;;;;;1.37;1.10;;;7.60;99.90;;;;;;5077536;28;20502;-86
2023/11/22 00:17:02;;;;;;;3.63;1.00;;;7.60;99.90;;;;;;5077410;28;20488;-87
2023/11/22 00:19:28;;;;;;;3.43;1.23;;;7.60;99.90;;;;;;5101771;22;20489;-81
2023/11/22 00:21:55;;;;;;;1.93;1.43;;;7.60;99.90;;;;;;5079069;28;20435;-81
2023/11/22 00:24:22;;;;;;;1.13;0.80;;;7.60;99.90;;;;;;5079133;28;20448;-81
2023/11/22 00:26:49;;;;;;;1.73;1.00;;;7.60;99.90;;;;;;5079173;28;20433;-82
2023/11/22 00:29:16;;;;;;;1.57;1.20;;;7.60;99.90;;;;;;5079575;28;20845;-81
2023/11/22 00:31:44;;;;;;;1.63;1.37;;;7.60;99.90;;;;;;5080077;28;20477;-81
2023/11/22 00:34:11;;;;;;;0.60;0.60;;;7.60;99.90;;;;;;5081685;28;20461;-80
2023/11/22 00:36:38;;;;;;;1.80;0.80;;;7.70;99.90;;;;;;5089296;28;20429;-81
2023/11/22 00:49:30;;;;;;;0.50;0.50;;;6.70;99.90;;;;;;5078110;28;20512;-81
2023/11/22 00:54:59;;;;;;;1.23;0.50;;;6.20;99.90;;;;;;5089811;28;20470;-81
2023/11/22 00:57:35;;;;;;;0.70;0.37;;;7.60;99.90;;;;;;5072748;28;20444;-81
2023/11/22 01:00:20;;;;;;;0.37;0.33;;;6.00;99.90;;;;;;5091200;28;20472;-81
2023/11/22 01:03:05;;;;;;;0.60;0.60;;;5.90;99.90;;;;;;5072428;28;20445;-81
2023/11/22 01:05:40;;;;;;;0.83;0.50;;;5.90;99.90;;;;;;5082511;28;20451;-80
2023/11/22 01:08:13;;;;;;;0.70;0.60;;;5.80;99.90;;;;;;5072203;28;20855;-81
2023/11/22 01:10:52;;;;;;;2.13;0.80;;;5.60;99.90;;;;;;5089912;28;20826;-81
2023/11/22 01:16:13;;;;;;;2.50;0.67;;;5.70;99.90;;;;;;5089026;28;20468;-81
2023/11/22 01:19:15;;;;;;;0.83;0.83;;;5.60;99.90;;;;;;5089226;28;20559;-81
2023/11/22 01:21:45;;;;;;;1.10;0.90;;;5.50;99.90;;;;;;5091419;28;20792;-81
2023/11/22 01:24:16;;;;;;;0.70;0.70;;;5.50;99.90;;;;;;5070959;28;20453;-81
2023/11/22 01:26:46;;;;;;;3.90;0.70;;;5.50;99.90;;;;;;5092384;28;20467;-81
2023/11/22 01:29:34;;;;;;;1.20;0.80;;;5.30;99.90;;;;;;5092624;28;20479;-81
2023/11/22 01:32:04;;;;;;;2.87;1.13;;;5.40;99.90;;;;;;5089427;28;20576;-81
2023/11/22 01:34:41;;;;;;;2.30;1.13;;;5.30;99.90;;;;;;5071480;28;20445;-81
2023/11/22 01:37:12;;;;;;;1.60;0.60;;;5.30;99.90;;;;;;5089189;28;20433;-81
2023/11/22 01:39:44;;;;;;;0.37;0.33;;;5.20;99.90;;;;;;5089570;28;20477;-81
2023/11/22 01:42:15;;;;;;;1.47;0.83;;;5.20;99.90;;;;;;5071658;28;20855;-81
2023/11/22 01:44:45;;;;;;;0.50;0.50;;;5.40;99.90;;;;;;5089514;28;20508;-81
2023/11/22 01:47:15;;;;;;;0.40;0.37;;;5.10;99.90;;;;;;5088980;28;20465;-81
2023/11/22 01:49:48;;;;;;;4.30;1.27;;;5.20;99.90;;;;;;5091327;28;20498;-81
2023/11/22 01:52:22;;;;;;;1.17;1.07;;;7.10;99.90;;;;;;5091490;28;20471;-82
2023/11/22 01:54:51;;;;;;;1.17;0.83;;;4.90;99.90;;;;;;5089230;28;20449;-81
2023/11/22 01:57:23;;;;;;;1.00;0.90;;;4.80;99.90;;;;;;5092369;28;20453;-82
2023/11/22 01:59:55;;;;;;;0.60;0.60;;;4.80;99.90;;;;;;5091185;28;20473;-82
2023/11/22 02:02:31;;;;;;;1.37;0.87;;;4.70;99.90;;;;;;5091903;28;20447;-81
2023/11/22 02:05:11;;;;;;;0.70;0.60;;;4.20;99.90;;;;;;5090176;28;20456;-82
2023/11/22 02:07:43;;;;;;;0.63;0.63;;;4.70;99.90;;;;;;5070114;28;20440;-81
2023/11/22 02:10:14;;;;;;;1.27;1.17;;;4.50;99.90;;;;;;5091888;28;20492;-82
2023/11/22 02:12:44;;;;;;;0.90;0.60;;;4.60;99.90;;;;;;5092013;28;20497;-80
2023/11/22 02:15:14;;;;;;;1.70;1.07;;;4.00;99.90;;;;;;5094143;28;20448;-81
2023/11/22 02:17:53;;;;;;;1.23;0.70;;;4.60;99.90;;;;;;5093803;28;20457;-81
2023/11/22 02:20:26;;;;;;;2.00;1.33;;;3.10;99.90;;;;;;5093003;28;20496;-81
2023/11/22 02:22:57;;;;;;;0.57;0.53;;;4.20;99.90;;;;;;5080881;28;20484;-82
2023/11/22 02:25:35;;;;;;;1.40;0.73;;;4.60;99.90;;;;;;5080388;28;20452;-82
2023/11/22 02:28:05;;;;;;;3.63;0.80;;;4.60;99.90;;;;;;5094778;28;20444;-80
2023/11/22 02:30:37;;;;;;;1.00;0.57;;;4.70;99.90;;;;;;5098866;28;20453;-81
2023/11/22 02:33:06;;;;;;;1.10;0.40;;;5.70;99.90;;;;;;5098583;28;20459;-82
2023/11/22 02:35:36;;;;;;;2.33;0.70;;;4.40;99.90;;;;;;5098494;28;20437;-82
2023/11/22 02:38:07;;;;;;;1.40;0.63;;;4.20;99.90;;;;;;5100022;28;20420;-82
2023/11/22 02:40:37;;;;;;;0.40;0.40;;;4.30;99.90;;;;;;5098481;28;20473;-81
2023/11/22 02:43:09;;;;;;;1.53;0.67;;;4.10;99.90;;;;;;5099044;28;20451;-82
2023/11/22 02:45:38;;;;;;;0.40;0.40;;;4.20;99.90;;;;;;5098771;28;20429;-82
2023/11/22 02:48:09;;;;;;;1.17;0.70;;;4.10;99.90;;;;;;5099420;28;20433;-82
2023/11/22 02:50:37;;;;;;;3.40;1.20;;;4.20;99.90;;;;;;5098088;28;20476;-82
2023/11/22 02:53:05;;;;;;;0.77;0.70;;;5.10;99.90;;;;;;5098298;28;20484;-82
2023/11/22 02:55:36;;;;;;;1.30;1.20;;;4.30;99.90;;;;;;5081437;28;20465;-81
2023/11/22 02:58:07;;;;;;;0.60;0.60;;;4.40;99.90;;;;;;5081958;28;20452;-82
2023/11/22 03:00:39;;;;;;;0.63;0.60;;;3.50;99.90;;;;;;5098937;28;20445;-82
2023/11/22 03:03:10;;;;;;;2.17;0.60;;;3.60;99.90;;;;;;5099609;28;20440;-83
2023/11/22 03:05:39;;;;;;;1.00;0.90;;;3.50;99.90;;;;;;5082040;28;20422;-81
2023/11/22 03:08:09;;;;;;;2.60;1.60;;;3.30;99.90;;;;;;5099416;28;20408;-83
2023/11/22 03:10:39;;;;;;;1.33;1.33;;;4.00;99.90;;;;;;5099251;28;20445;-81
2023/11/22 03:13:14;;;;;;;0.97;0.97;;;5.60;99.90;;;;;;5098959;28;20464;-83
2023/11/22 03:15:55;;;;;;;1.20;1.10;;;2.80;99.90;;;;;;5099653;28;20409;-82
2023/11/22 03:18:26;;;;;;;0.70;0.60;;;4.00;99.90;;;;;;5098681;28;20459;-82
2023/11/22 03:20:55;;;;;;;1.17;0.60;;;2.90;99.90;;;;;;5097552;28;20495;-82
2023/11/22 03:23:23;;;;;;;1.43;0.63;;;4.00;99.90;;;;;;5099263;28;20432;-82
2023/11/22 03:25:52;;;;;;;0.70;0.50;;;4.80;99.90;;;;;;5099304;28;20854;-83
2023/11/22 03:28:30;;;;;;;0.90;0.73;;;3.90;99.90;;;;;;5098558;28;20437;-82
2023/11/22 03:31:02;;;;;;;0.73;0.73;;;4.10;99.90;;;;;;5096746;28;20492;-81
2023/11/22 03:33:39;;;;;;;0.60;0.50;;;4.00;99.90;;;;;;5095311;28;20417;-82
2023/11/22 03:36:08;;;;;;;1.53;1.37;;;4.90;99.90;;;;;;5095130;28;20436;-81
2023/11/22 03:38:37;;;;;;;2.83;1.40;;;4.60;99.90;;;;;;5096005;28;20453;-82
2023/11/22 03:41:05;;;;;;;2.53;0.90;;;4.00;99.90;;;;;;5095170;28;20532;-81
2023/11/22 03:43:38;;;;;;;1.60;1.17;;;4.10;99.90;;;;;;5078514;28;20492;-81
2023/11/22 03:46:06;;;;;;;0.80;0.73;;;3.70;99.90;;;;;;5096659;28;20465;-82
2023/11/22 03:48:35;;;;;;;0.63;0.63;;;3.50;99.90;;;;;;5096100;28;20449;-82
2023/11/22 03:51:04;;;;;;;7.60;1.10;;;3.90;99.90;;;;;;5097633;28;20475;-82
2023/11/22 03:53:37;;;;;;;0.80;0.80;;;3.80;99.90;;;;;;5080677;28;20441;-82
2023/11/22 03:56:10;;;;;;;0.83;0.83;;;3.90;99.90;;;;;;5097275;28;20471;-82
2023/11/22 03:58:42;;;;;;;2.10;0.70;;;3.90;99.90;;;;;;5095988;28;20409;-81
2023/11/22 04:01:12;;;;;;;1.17;0.80;;;6.10;99.90;;;;;;5096868;28;20464;-81
2023/11/22 04:03:43;;;;;;;0.50;0.50;;;3.70;99.90;;;;;;5096990;28;20459;-82
2023/11/22 04:06:11;;;;;;;2.10;1.17;;;3.90;99.90;;;;;;5097829;28;20396;-81
2023/11/22 04:08:44;;;;;;;0.80;0.80;;;5.50;99.90;;;;;;5097818;28;20437;-81
2023/11/22 04:11:12;;;;;;;1.07;0.57;;;3.30;99.90;;;;;;5096468;28;20499;-81
2023/11/22 04:13:47;;;;;;;1.27;0.93;;;3.70;99.90;;;;;;5080659;28;20417;-82
2023/11/22 04:16:17;;;;;;;1.47;1.00;;;3.60;99.90;;;;;;5098889;28;20448;-82
2023/11/22 04:18:46;;;;;;;2.00;0.90;;;3.70;99.90;;;;;;5097551;28;20428;-82
2023/11/22 04:21:15;;;;;;;2.30;0.90;;;3.70;99.90;;;;;;5097752;28;20497;-84
2023/11/22 04:23:45;;;;;;;1.50;1.40;;;3.70;99.90;;;;;;5098902;28;20443;-81
2023/11/22 04:26:16;;;;;;;0.60;0.60;;;3.70;99.90;;;;;;5081408;28;20437;-84
2023/11/22 04:28:45;;;;;;;7.70;1.03;;;3.70;99.90;;;;;;5098672;28;20475;-82
2023/11/22 04:31:15;;;;;;;0.50;0.50;;;3.80;99.90;;;;;;5098560;28;20488;-82
2023/11/22 04:33:45;;;;;;;0.90;0.80;;;3.70;99.90;;;;;;5097933;28;20448;-82
2023/11/22 04:36:16;;;;;;;1.43;0.60;;;3.60;99.90;;;;;;5098369;28;20456;-82
2023/11/22 04:38:46;;;;;;;3.33;0.70;;;3.60;99.90;;;;;;5097740;28;20455;-82
2023/11/22 04:41:15;;;;;;;1.70;1.10;;;3.60;99.90;;;;;;5098085;28;20470;-82
2023/11/22 04:43:47;;;;;;;0.50;0.50;;;4.10;99.90;;;;;;5098520;28;20448;-81
2023/11/22 04:46:17;;;;;;;1.17;0.70;;;3.60;99.90;;;;;;5098660;28;20398;-82
2023/11/22 04:48:47;;;;;;;0.63;0.63;;;5.80;99.90;;;;;;5098144;28;20434;-82
2023/11/22 04:51:19;;;;;;;1.77;1.67;;;3.80;99.90;;;;;;5098343;28;20482;-83
2023/11/22 04:53:47;;;;;;;1.73;1.00;;;3.90;99.90;;;;;;5098297;28;20420;-81
2023/11/22 04:56:18;;;;;;;2.10;0.70;;;5.10;99.90;;;;;;5098405;28;20451;-82
2023/11/22 04:58:52;;;;;;;0.67;0.67;;;3.80;99.90;;;;;;5082255;28;20449;-83
2023/11/22 05:01:20;;;;;;;3.67;0.40;;;3.80;99.90;;;;;;5101521;28;20453;-82
2023/11/22 05:03:49;;;;;;;1.47;1.10;;;3.80;99.90;;;;;;5101150;28;20496;-83
2023/11/22 05:06:19;;;;;;;1.33;0.60;;;3.80;99.90;;;;;;5101671;28;20436;-83
2023/11/22 05:08:48;;;;;;;1.27;1.17;;;3.80;99.90;;;;;;5101565;28;20461;-83
2023/11/22 05:11:19;;;;;;;1.77;0.87;;;3.80;99.90;;;;;;5084588;28;20460;-83
2023/11/22 05:13:51;;;;;;;0.70;0.53;;;5.30;99.90;;;;;;5084579;28;20486;-83
2023/11/22 05:16:21;;;;;;;0.43;0.43;;;3.90;99.90;;;;;;5068150;28;20444;-82
2023/11/22 05:18:52;;;;;;;1.57;0.70;;;3.90;99.90;;;;;;5101088;28;20448;-82
2023/11/22 05:21:22;;;;;;;1.07;0.53;;;4.50;99.90;;;;;;5101225;28;20453;-82
2023/11/22 05:23:52;;;;;;;1.10;1.00;;;3.70;99.90;;;;;;5101641;28;20429;-82
2023/11/22 05:26:20;;;;;;;1.60;1.13;;;3.60;99.90;;;;;;5101529;28;20429;-82
2023/11/22 05:29:01;;;;;;;1.33;1.20;;;2.20;99.90;;;;;;5084415;28;20440;-83
2023/11/22 05:31:31;;;;;;;0.53;0.53;;;3.70;99.90;;;;;;5101383;28;20447;-82
2023/11/22 05:33:59;;;;;;;0.93;0.67;;;3.60;99.90;;;;;;5101339;28;20480;-82
2023/11/22 05:36:27;;;;;;;0.30;0.30;;;3.60;99.90;;;;;;5101209;28;20456;-80
2023/11/22 05:38:55;;;;;;;0.40;0.37;;;5.40;99.90;;;;;;5101358;28;20433;-82
2023/11/22 05:41:29;;;;;;;1.43;0.73;;;3.50;99.90;;;;;;5100991;28;20425;-82
2023/11/22 05:44:00;;;;;;;1.03;0.90;;;3.40;99.90;;;;;;5101115;28;20433;-81
2023/11/22 05:46:29;;;;;;;1.87;0.80;;;3.50;99.90;;;;;;5084150;28;20419;-82
2023/11/22 05:49:00;;;;;;;0.50;0.50;;;3.50;99.90;;;;;;5101158;28;20444;-82
2023/11/22 05:51:30;;;;;;;0.40;0.40;;;3.70;99.90;;;;;;5101120;28;20448;-83
2023/11/22 05:54:06;;;;;;;1.23;0.97;;;3.30;99.90;;;;;;5083797;28;20460;-82
2023/11/22 05:56:37;;;;;;;0.70;0.70;;;3.50;99.90;;;;;;5083923;28;20499;-83
2023/11/22 05:59:11;;;;;;;2.73;0.60;;;3.90;99.90;;;;;;5100745;28;20398;-83
2023/11/22 06:01:41;;;;;;;1.00;0.77;;;4.20;99.90;;;;;;5100796;28;20408;-81
2023/11/22 06:04:19;;;;;;;1.73;1.17;;;3.10;99.90;;;;;;5100872;28;20424;-82
2023/11/22 06:06:52;;;;;;;0.80;0.70;;;3.30;99.90;;;;;;5100629;28;20459;-83
2023/11/22 06:09:24;;;;;;;0.57;0.57;;;3.50;99.90;;;;;;5100210;28;20462;-82
2023/11/22 06:11:56;;;;;;;0.53;0.50;;;3.60;99.90;;;;;;5100173;28;20467;-82
2023/11/22 06:14:35;;;;;;;1.70;1.13;;;3.10;99.90;;;;;;5100633;28;20414;-82
2023/11/22 06:17:08;;;;;;;2.73;0.60;;;3.50;99.90;;;;;;5100651;28;20421;-82
2023/11/22 06:48:16;;;;;;;1.17;0.67;;;3.40;99.90;;;;;;5082514;28;20481;-83
2023/11/22 06:50:44;;;;;;;1.17;0.80;;;3.30;99.90;;;;;;5099623;28;20474;-83
2023/11/22 06:53:11;;;;;;;1.00;0.50;;;3.30;99.90;;;;;;5107869;28;20468;-84
2023/11/22 06:55:38;;;;;;;1.43;0.97;;;3.40;99.90;;;;;;5107567;28;20493;-83
2023/11/22 06:58:06;;;;;;;3.60;1.03;;;3.30;99.90;;;;;;5108347;28;20505;-82
2023/11/22 07:00:33;;;;;;;1.20;0.80;;;3.30;99.90;;;;;;5117939;28;20474;-82
2023/11/22 07:03:01;;;;;;;0.40;0.30;;;3.30;99.90;;;;;;5103331;28;20470;-81
2023/11/22 07:05:30;;;;;;;1.03;1.03;;;3.20;99.90;;;;;;5101243;28;20497;-82
2023/11/22 07:07:57;;;;;;;0.80;0.60;;;3.10;99.90;;;;;;5101905;28;20443;-83
2023/11/22 07:10:24;;;;;;;0.37;0.37;;;3.10;99.90;;;;;;5103034;28;20546;-83
2023/11/22 07:12:50;;;;;;;1.93;0.53;;;3.10;99.90;;;;;;5104903;28;20468;-83
2023/11/22 07:15:17;;;;;;;0.80;0.60;;;3.10;99.90;;;;;;5104708;28;20452;-82
2023/11/22 07:17:45;;;;;;;0.70;0.70;;;3.20;99.90;;;;;;5106624;28;20435;-82
2023/11/22 07:20:16;;;;;;;0.50;0.40;;;3.10;99.90;;;;;;5106791;28;20467;-82
2023/11/22 07:22:44;;;;;;;0.73;0.73;;;3.20;99.90;;;;;;5106063;28;20440;-82
2023/11/22 07:25:17;;;;;;;3.23;0.80;;;3.20;99.90;;;;;;5106512;28;20471;-82
2023/11/22 07:27:46;;;;;;;0.70;0.70;;;3.30;99.90;;;;;;5107152;28;20475;-83
2023/11/22 07:30:13;;;;;;;0.90;0.63;;;3.30;99.90;;;;;;5107368;28;20449;-83
2023/11/22 07:32:40;;;;;;;1.70;0.63;;;3.40;99.90;;;;;;5107168;28;20563;-82
2023/11/22 07:35:09;;;;;;;0.97;0.40;;;3.40;99.90;;;;;;5107470;28;20444;-82
2023/11/22 07:37:36;;;;;;;1.87;1.37;;;3.30;99.90;;;;;;5106966;28;20441;-83
2023/11/22 07:40:05;;;;;;;1.03;1.03;;;3.40;99.90;;;;;;5107580;28;20468;-83
2023/11/22 07:42:32;;;;;;;0.70;0.60;;;3.40;99.90;;;;;;5106864;28;20508;-82
2023/11/22 07:44:59;;;;;;;6.73;1.00;;;3.50;99.90;;;;;;5107091;28;20452;-83
2023/11/22 07:47:26;;;;;;;0.80;0.80;;;3.50;99.90;;;;;;5106814;28;20458;-82
2023/11/22 07:49:55;;;;;;;1.33;1.20;;;3.50;99.90;;;;;;5106143;28;20483;-83
2023/11/22 07:52:22;;;;;;;1.47;0.87;;;3.50;99.90;;;;;;5107836;28;20467;-82
2023/11/22 07:54:49;;;;;;;4.37;0.80;;;3.50;99.90;;;;;;5107059;28;20448;-82
2023/11/22 07:57:20;;;;;;;0.97;0.83;;;3.50;99.90;;;;;;5107400;28;20445;-83
2023/11/22 07:59:47;;;;;;;1.20;1.10;;;3.50;99.90;;;;;;5107857;28;20919;-82
2023/11/22 08:02:18;;;;;;;0.83;0.83;;;3.40;99.90;;;;;;5107250;28;20474;-82
2023/11/22 08:04:52;;;;;;;0.60;0.60;;;3.30;99.90;;;;;;5107049;28;20459;-82
2023/11/22 08:07:21;;;;;;;0.50;0.50;;;3.30;99.90;;;;;;5106940;28;20477;-82
2023/11/22 08:09:48;;;;;;;0.40;0.30;;;3.30;99.90;;;;;;5106780;28;20460;-82
2023/11/22 08:12:16;;;;;;;1.00;0.67;;;3.30;99.90;;;;;;5106756;28;20470;-82
2023/11/22 08:14:44;;;;;;;1.90;0.90;;;3.30;99.90;;;;;;5106737;28;20485;-81
2023/11/22 08:17:11;;;;;;;0.30;0.30;;;3.20;99.90;;;;;;5106147;28;20432;-82
2023/11/22 08:19:40;;;;;;;0.60;0.60;;;3.20;99.90;;;;;;5105340;28;20531;-83
2023/11/22 08:22:06;;;;;;;1.47;1.07;;;3.10;99.90;;;;;;5104258;28;20433;-81
2023/11/22 08:24:33;;;;;;;0.53;0.40;;;3.10;99.90;;;;;;5102119;28;20470;-82
2023/11/22 08:27:00;;;;;;;0.60;0.60;;;2.90;99.90;;;;;;5102816;28;20530;-82
2023/11/22 08:29:28;;;;;;;5.30;0.77;;;2.90;99.90;;;;;;5103083;28;20444;-83
2023/11/22 08:31:55;;;;;;;0.63;0.63;;;2.90;99.90;;;;;;5102668;28;20444;-82
2023/11/22 08:34:21;;;;;;;1.07;1.07;;;2.90;99.90;;;;;;5106873;28;20476;-82
2023/11/22 08:36:48;;;;;;;0.70;0.57;;;3.00;99.90;;;;;;5107858;28;20447;-82
2023/11/22 08:39:15;;;;;;;1.00;1.00;;;3.00;99.90;;;;;;5108841;28;20444;-82
2023/11/22 08:41:42;;;;;;;1.47;0.40;;;3.00;99.90;;;;;;5109230;28;20448;-81
2023/11/22 08:44:09;;;;;;;0.40;0.30;;;3.00;99.90;;;;;;5108974;28;20436;-81
2023/11/22 08:46:40;;;;;;;0.30;0.30;;;2.90;99.90;;;;;;5108772;28;20445;-82
2023/11/22 08:49:07;;;;;;;3.90;0.70;;;2.80;99.90;;;;;;5109020;28;20474;-81
2023/11/22 08:51:34;;;;;;;0.40;0.30;;;2.90;99.90;;;;;;5109193;28;20493;-81
2023/11/22 08:54:01;;;;;;;0.50;0.50;;;2.90;99.90;;;;;;5109010;28;20472;-82
2023/11/22 08:56:28;;;;;;;1.57;0.87;;;3.00;99.90;;;;;;5109168;28;20435;-81
2023/11/22 08:58:54;;;;;;;0.70;0.70;;;3.10;99.90;;;;;;5109613;28;20522;-82
2023/11/22 09:01:21;;;;;;;1.93;1.07;;;3.20;99.90;;;;;;5110246;28;20460;-82
2023/11/22 09:03:50;;;;;;;0.50;0.50;;;3.30;99.90;;;;;;5109482;28;20507;-81
2023/11/22 09:06:18;;;;;;;0.40;0.40;;;3.30;99.90;;;;;;5110266;28;20469;-81
2023/11/22 09:08:46;;;;;;;0.73;0.40;;;3.50;99.90;;;;;;5110218;28;20444;-82
2023/11/22 09:11:15;;;;;;;0.40;0.40;;;3.50;99.90;;;;;;5109212;28;20472;-82
2023/11/22 09:13:42;;;;;;;1.07;0.80;;;3.60;99.90;;;;;;5120469;28;20493;-81
2023/11/22 09:16:10;;;;;;;0.80;0.63;;;3.60;99.90;;;;;;5097900;28;20440;-82
2023/11/22 09:18:37;;;;;;;0.47;0.47;;;3.60;99.90;;;;;;5099457;28;20455;-82
2023/11/22 09:21:08;;;;;;;1.27;0.70;;;3.60;99.90;;;;;;5101561;28;20459;-82
2023/11/22 09:23:35;;;;;;;0.50;0.50;;;3.60;99.90;;;;;;5102827;28;20427;-81
2023/11/22 09:26:02;;;;;;;0.70;0.43;;;3.60;99.90;;;;;;5104451;28;20444;-83
2023/11/22 09:28:30;;;;;;;1.40;1.20;;;3.50;99.90;;;;;;5105395;28;20444;-82
2023/11/22 09:31:05;;;;;;;2.43;1.10;;;3.40;99.90;;;;;;5105751;28;20478;-82
2023/11/22 09:33:32;;;;;;;1.93;0.63;;;3.30;99.90;;;;;;5106381;28;20468;-82
2023/11/22 09:35:59;;;;;;;1.70;0.60;;;3.30;99.90;;;;;;5106453;28;20452;-82
2023/11/22 09:38:27;;;;;;;1.93;0.60;;;3.40;99.90;;;;;;5107926;28;20455;-82
2023/11/22 09:40:54;;;;;;;0.90;0.30;;;3.40;99.90;;;;;;5107646;28;20478;-82
2023/11/22 09:43:23;;;;;;;1.17;0.77;;;3.50;99.90;;;;;;5108128;28;20442;-83
2023/11/22 09:45:51;;;;;;;6.10;0.87;;;3.50;99.90;;;;;;5106619;28;20459;-82
2023/11/22 09:48:19;;;;;;;2.00;1.30;;;3.50;99.90;;;;;;5107943;28;20412;-82
2023/11/22 09:50:55;;;;;;;0.87;0.50;;;3.50;99.90;;;;;;5108163;28;21073;-82
2023/11/22 09:53:30;;;;;;;1.27;0.70;;;3.60;99.90;;;;;;5108652;28;20481;-83
2023/11/22 09:55:59;;;;;;;0.50;0.50;;;3.60;99.90;;;;;;5107819;28;20424;-82
2023/11/22 09:58:29;;;;;;;1.23;0.40;;;3.70;99.90;;;;;;5108467;28;20504;-82
2023/11/22 10:00:56;;;;;;;0.40;0.40;;;3.70;99.90;;;;;;5108311;28;20468;-82
2023/11/22 10:03:23;;;;;;;3.70;1.80;;;3.70;99.90;;;;;;5108588;28;20440;-82
2023/11/22 10:05:52;;;;;;;1.10;0.70;;;3.70;99.90;;;;;;5107972;28;20459;-83
2023/11/22 10:08:22;;;;;;;1.67;0.50;;;3.60;99.90;;;;;;5106390;28;20495;-82
2023/11/22 10:10:51;;;;;;;1.43;0.80;;;3.60;99.90;;;;;;5107961;28;20956;-83
2023/11/22 10:13:20;;;;;;;0.63;0.43;;;3.60;99.90;;;;;;5107672;28;20476;-83
2023/11/22 10:15:47;;;;;;;1.20;0.80;;;3.50;99.90;;;;;;5107011;28;20486;-83
2023/11/22 10:18:15;;;;;;;1.23;0.60;;;3.50;99.90;;;;;;5108310;28;20452;-82
2023/11/22 10:20:44;;;;;;;1.43;0.80;;;3.50;99.90;;;;;;5107498;28;20462;-82
2023/11/22 10:23:12;;;;;;;1.73;0.60;;;3.40;99.90;;;;;;5108024;28;20454;-83
2023/11/22 10:25:44;;;;;;;1.10;0.43;;;3.50;99.90;;;;;;5108009;28;20440;-82
2023/11/22 10:28:11;;;;;;;0.30;0.30;;;3.40;99.90;;;;;;5108069;28;20444;-83
2023/11/22 10:30:40;;;;;;;1.03;1.03;;;3.30;99.90;;;;;;5107159;28;20472;-83
2023/11/22 10:33:07;;;;;;;1.73;0.97;;;3.40;99.90;;;;;;5108024;28;20891;-83
2023/11/22 10:35:34;;;;;;;3.13;0.87;;;3.40;99.90;;;;;;5107915;28;20497;-82
2023/11/22 10:38:02;;;;;;;3.13;1.67;;;3.40;99.90;;;;;;5107726;28;20432;-82
2023/11/22 10:40:30;;;;;;;1.53;1.40;;;3.40;99.90;;;;;;5107354;28;20476;-83
2023/11/22 10:42:57;;;;;;;2.07;0.90;;;3.40;99.90;;;;;;5107065;28;20471;-83
2023/11/22 10:45:27;;;;;;;0.50;0.50;;;3.30;99.90;;;;;;5106602;28;20853;-82
2023/11/22 10:47:57;;;;;;;1.13;0.70;;;3.30;99.90;;;;;;5106694;28;20500;-82
2023/11/22 10:50:24;;;;;;;1.23;1.00;;;3.30;99.90;;;;;;5107402;28;20521;-82
2023/11/22 10:52:55;;;;;;;3.13;1.00;;;3.40;99.90;;;;;;5107449;28;20452;-82
2023/11/22 10:55:26;;;;;;;0.80;0.50;;;3.30;99.90;;;;;;5107122;28;20472;-83
2023/11/22 10:57:55;;;;;;;0.73;0.73;;;3.40;99.90;;;;;;5107934;28;20433;-82
2023/11/22 11:00:23;;;;;;;1.43;0.93;;;3.40;99.90;;;;;;5108254;28;20464;-83
2023/11/22 11:02:56;;;;;;;2.00;1.13;;;3.40;99.90;;;;;;5107932;28;20451;-82
2023/11/22 11:05:30;;;;;;;1.57;0.83;;;3.40;99.90;;;;;;5107732;28;20454;-83
2023/11/22 11:08:10;;;;;;;1.30;1.13;;;3.40;99.90;;;;;;5107928;28;20758;-82
2023/11/22 11:10:40;;;;;;;3.70;1.90;;;3.40;99.90;;;;;;5107963;28;20464;-82
2023/11/22 11:13:09;;;;;;;0.50;0.50;;;3.40;99.90;;;;;;5106579;28;20444;-82
2023/11/22 11:15:36;;;;;;;0.70;0.60;;;3.50;99.90;;;;;;5107153;28;20472;-82
2023/11/22 11:18:04;;;;;;;2.60;0.93;;;3.60;99.90;;;;;;5107360;28;20432;-82
2023/11/22 11:20:47;;;;;;;1.17;0.77;;;3.70;99.90;;;;;;5106462;28;20470;-83
2023/11/22 11:23:15;;;;;;;0.90;0.90;;;3.80;99.90;;;;;;5114885;28;20435;-83
2023/11/22 11:25:43;;;;;;;2.50;1.43;;;3.80;99.90;;;;;;5104018;28;20819;-84
2023/11/22 11:28:11;;;;;;;2.17;0.90;;;3.90;99.90;;;;;;5097156;28;20869;-81
2023/11/22 11:30:46;;;;;;;6.03;1.23;;;3.90;99.90;;;;;;5098243;28;20468;-83
2023/11/22 11:33:15;;;;;;;0.93;0.93;;;3.90;99.90;;;;;;5099307;28;20962;-82
2023/11/22 11:35:46;;;;;;;1.70;0.80;;;3.90;99.90;;;;;;5098957;28;20484;-82
2023/11/22 11:38:14;;;;;;;1.80;0.80;;;3.80;99.90;;;;;;5099438;28;20424;-83
2023/11/22 11:40:43;;;;;;;1.37;0.80;;;3.80;99.90;;;;;;5100212;28;20463;-82
2023/11/22 11:43:11;;;;;;;1.27;0.90;;;3.90;99.90;;;;;;5101443;28;20444;-83
2023/11/22 11:45:40;;;;;;;1.10;0.60;;;3.80;99.90;;;;;;5102726;28;20785;-82
2023/11/22 11:48:07;;;;;;;0.83;0.80;;;3.90;99.90;;;;;;5103022;28;20436;-83
2023/11/22 11:50:34;;;;;;;1.97;1.87;;;3.90;99.90;;;;;;5103010;28;20467;-82
2023/11/22 11:53:04;;;;;;;1.33;1.23;;;3.90;99.90;;;;;;5103061;28;20503;-82
2023/11/22 11:55:31;;;;;;;1.23;0.80;;;4.00;99.90;;;;;;5103564;28;20464;-82
2023/11/22 11:58:04;;;;;;;0.77;0.77;;;3.90;99.90;;;;;;5102898;28;20440;-84
2023/11/22 12:00:31;;;;;;;0.70;0.43;;;3.90;99.90;;;;;;5104046;28;20815;-82
2023/11/22 12:02:58;;;;;;;4.23;1.03;;;3.80;99.90;;;;;;5105050;28;20450;-82
2023/11/22 12:05:25;;;;;;;1.00;0.60;;;3.90;99.90;;;;;;5104633;28;20443;-81
2023/11/22 12:07:52;;;;;;;1.60;1.00;;;3.80;99.90;;;;;;5106708;28;20939;-82
2023/11/22 12:10:21;;;;;;;1.10;1.00;;;3.80;99.90;;;;;;5110004;28;20452;-84
2023/11/22 12:12:48;;;;;;;3.30;1.23;;;3.80;99.90;;;;;;5110009;28;20493;-82
2023/11/22 12:15:15;;;;;;;0.90;0.83;;;3.80;99.90;;;;;;5109568;28;20484;-82
2023/11/22 12:17:42;;;;;;;1.80;1.37;;;3.80;99.90;;;;;;5110348;28;20489;-82
